Terminal Aerodrome Forecast
Issued by NWS Bismarck, ND

Home | Current Version | Previous Version | Graphics & Text | Print | Product List | Glossary On
Versions: 1 2 3 4 5 6 7 8 9 10 11 12 13 14 15 16 17 18 19 20 21
135
FTUS43 KBIS 180123 AAA
TAFISN
TAF AMD
KISN 180123Z 1801/1824 05016G23KT P6SM FEW015 BKN200
     FM180300 06013G21KT P6SM OVC015
     FM180600 06012KT P6SM VCSH OVC010
     FM181000 03011KT 6SM -SHRA OVC008
     FM182100 02017KT P6SM VCSH OVC010=

USA.gov is the U.S. government's official web portal to all federal, state and local government web resources and services.